Blodgett Mills, New York
Current Conditions -  °F | °C
As of 3:15 AM on Monday 24 Nov 2014 (Local Time) from KN03 Reporting Station
Light Rain Light Rain  
Wind Chill: 41°   Ceiling: 3800
Heat Index: 46°   Visibility: 10mi
Dew Point: 46°   Wind: 10mph
Humidity: 100%   Direction: 130°SE
Pressure: 29.58"   Gusts: 18mph
Location:  42.57°N, 76.13°W
Report Text: KN03 240815Z AUTO 13009G16KT 10SM -RA SCT011 BKN038 OVC100 08/08 A2958 RMK AO2
Loading
Personal Weather Stations






























Interactive Weather Map New forecast layout! Learn more

10-Day Weather Forecast

Advertisements
Track Severe Weather on mobile